sensor_id;sensor_type;location;lat;lon;timestamp;pressure;altitude;pressure_sealevel;temperature;humidity
36254;BME280;22291;52.250;21.228;2023-01-27T00:00:58;100665.91;;;-0.50;83.08
36254;BME280;22291;52.250;21.228;2023-01-27T00:03:24;100669.90;;;-0.50;83.28
36254;BME280;22291;52.250;21.228;2023-01-27T00:05:51;100672.06;;;-0.49;83.37
36254;BME280;22291;52.250;21.228;2023-01-27T00:08:18;100672.06;;;-0.49;83.51
36254;BME280;22291;52.250;21.228;2023-01-27T00:10:44;100668.34;;;-0.48;83.61
36254;BME280;22291;52.250;21.228;2023-01-27T00:13:12;100672.11;;;-0.47;83.61
36254;BME280;22291;52.250;21.228;2023-01-27T00:15:52;100676.17;;;-0.44;83.80
36254;BME280;22291;52.250;21.228;2023-01-27T00:18:20;100674.59;;;-0.43;83.74
36254;BME280;22291;52.250;21.228;2023-01-27T00:20:48;100674.37;;;-0.41;83.69
36254;BME280;22291;52.250;21.228;2023-01-27T00:23:33;100685.89;;;-0.38;83.68
36254;BME280;22291;52.250;21.228;2023-01-27T00:26:19;100678.72;;;-0.38;83.79
36254;BME280;22291;52.250;21.228;2023-01-27T00:28:46;100674.23;;;-0.37;83.83
36254;BME280;22291;52.250;21.228;2023-01-27T00:31:15;100686.23;;;-0.34;83.78
36254;BME280;22291;52.250;21.228;2023-01-27T00:34:01;100686.55;;;-0.33;83.75
36254;BME280;22291;52.250;21.228;2023-01-27T00:36:30;100680.70;;;-0.33;83.83
36254;BME280;22291;52.250;21.228;2023-01-27T00:38:56;100686.81;;;-0.32;83.68
36254;BME280;22291;52.250;21.228;2023-01-27T00:41:22;100683.94;;;-0.31;83.68
36254;BME280;22291;52.250;21.228;2023-01-27T00:43:51;100684.77;;;-0.30;83.63
36254;BME280;22291;52.250;21.228;2023-01-27T00:46:23;100692.74;;;-0.30;83.61
36254;BME280;22291;52.250;21.228;2023-01-27T00:48:48;100695.90;;;-0.31;83.66
36254;BME280;22291;52.250;21.228;2023-01-27T00:51:19;100691.69;;;-0.29;83.68
36254;BME280;22291;52.250;21.228;2023-01-27T00:53:46;100695.18;;;-0.29;83.55
36254;BME280;22291;52.250;21.228;2023-01-27T00:56:13;100696.51;;;-0.29;83.42
36254;BME280;22291;52.250;21.228;2023-01-27T00:58:40;100694.80;;;-0.32;83.32
36254;BME280;22291;52.250;21.228;2023-01-27T01:01:09;100690.53;;;-0.33;83.41
36254;BME280;22291;52.250;21.228;2023-01-27T01:03:36;100685.49;;;-0.32;83.57
36254;BME280;22291;52.250;21.228;2023-01-27T01:06:06;100684.41;;;-0.34;83.60
36254;BME280;22291;52.250;21.228;2023-01-27T01:08:35;100687.87;;;-0.33;83.60
36254;BME280;22291;52.250;21.228;2023-01-27T01:11:04;100689.48;;;-0.32;83.73
36254;BME280;22291;52.250;21.228;2023-01-27T01:13:31;100687.87;;;-0.33;83.74
36254;BME280;22291;52.250;21.228;2023-01-27T01:16:06;100674.50;;;-0.36;83.73
36254;BME280;22291;52.250;21.228;2023-01-27T01:18:34;100678.44;;;-0.39;83.44
36254;BME280;22291;52.250;21.228;2023-01-27T01:21:01;100679.91;;;-0.43;83.63
36254;BME280;22291;52.250;21.228;2023-01-27T01:23:27;100687.61;;;-0.44;83.64
36254;BME280;22291;52.250;21.228;2023-01-27T01:25:55;100687.03;;;-0.46;83.59
36254;BME280;22291;52.250;21.228;2023-01-27T01:28:22;100686.51;;;-0.45;83.84
36254;BME280;22291;52.250;21.228;2023-01-27T01:30:48;100681.19;;;-0.45;83.99
36254;BME280;22291;52.250;21.228;2023-01-27T01:33:15;100680.08;;;-0.47;84.00
36254;BME280;22291;52.250;21.228;2023-01-27T01:35:42;100678.23;;;-0.46;83.95
36254;BME280;22291;52.250;21.228;2023-01-27T01:38:09;100684.59;;;-0.47;84.09
36254;BME280;22291;52.250;21.228;2023-01-27T01:40:41;100682.74;;;-0.47;84.08
36254;BME280;22291;52.250;21.228;2023-01-27T01:43:16;100686.42;;;-0.48;84.07
36254;BME280;22291;52.250;21.228;2023-01-27T01:45:51;100683.71;;;-0.50;84.08
36254;BME280;22291;52.250;21.228;2023-01-27T01:51:31;100688.23;;;-0.51;84.28
36254;BME280;22291;52.250;21.228;2023-01-27T01:54:06;100686.59;;;-0.52;84.33
36254;BME280;22291;52.250;21.228;2023-01-27T01:56:45;100688.67;;;-0.54;84.42
36254;BME280;22291;52.250;21.228;2023-01-27T01:59:24;100679.38;;;-0.54;84.45
36254;BME280;22291;52.250;21.228;2023-01-27T02:01:58;100686.55;;;-0.54;84.64
36254;BME280;22291;52.250;21.228;2023-01-27T02:04:31;100679.06;;;-0.55;84.86
36254;BME280;22291;52.250;21.228;2023-01-27T02:07:28;100679.81;;;-0.57;84.72
36254;BME280;22291;52.250;21.228;2023-01-27T02:09:59;100677.91;;;-0.59;84.79
36254;BME280;22291;52.250;21.228;2023-01-27T02:12:26;100673.84;;;-0.62;84.89
36254;BME280;22291;52.250;21.228;2023-01-27T02:14:54;100671.41;;;-0.63;84.79
36254;BME280;22291;52.250;21.228;2023-01-27T02:17:21;100676.14;;;-0.65;84.84
36254;BME280;22291;52.250;21.228;2023-01-27T02:19:55;100674.53;;;-0.66;84.96
36254;BME280;22291;52.250;21.228;2023-01-27T02:22:32;100673.43;;;-0.68;85.03
36254;BME280;22291;52.250;21.228;2023-01-27T02:25:01;100675.78;;;-0.69;85.26
36254;BME280;22291;52.250;21.228;2023-01-27T02:27:29;100672.02;;;-0.70;85.25
36254;BME280;22291;52.250;21.228;2023-01-27T02:29:55;100673.34;;;-0.70;85.49
36254;BME280;22291;52.250;21.228;2023-01-27T02:32:27;100683.45;;;-0.70;85.53
36254;BME280;22291;52.250;21.228;2023-01-27T02:34:52;100687.43;;;-0.70;85.79
36254;BME280;22291;52.250;21.228;2023-01-27T02:37:22;100680.79;;;-0.70;86.08
36254;BME280;22291;52.250;21.228;2023-01-27T02:39:50;100680.56;;;-0.68;86.01
36254;BME280;22291;52.250;21.228;2023-01-27T02:42:18;100679.77;;;-0.69;86.05
36254;BME280;22291;52.250;21.228;2023-01-27T02:44:45;100680.79;;;-0.70;85.98
36254;BME280;22291;52.250;21.228;2023-01-27T02:47:11;100684.77;;;-0.70;86.17
36254;BME280;22291;52.250;21.228;2023-01-27T02:49:37;100682.20;;;-0.67;86.43
36254;BME280;22291;52.250;21.228;2023-01-27T02:52:04;100687.56;;;-0.65;86.51
36254;BME280;22291;52.250;21.228;2023-01-27T02:54:30;100683.89;;;-0.64;86.48
36254;BME280;22291;52.250;21.228;2023-01-27T02:56:57;100683.89;;;-0.64;86.30
36254;BME280;22291;52.250;21.228;2023-01-27T02:59:23;100685.80;;;-0.62;86.19
36254;BME280;22291;52.250;21.228;2023-01-27T03:01:50;100681.59;;;-0.60;86.40
36254;BME280;22291;52.250;21.228;2023-01-27T03:04:17;100684.33;;;-0.58;86.78
36254;BME280;22291;52.250;21.228;2023-01-27T03:06:43;100683.27;;;-0.57;86.57
36254;BME280;22291;52.250;21.228;2023-01-27T03:09:09;100689.70;;;-0.55;86.55
36254;BME280;22291;52.250;21.228;2023-01-27T03:11:35;100692.94;;;-0.53;86.80
36254;BME280;22291;52.250;21.228;2023-01-27T03:14:22;100687.13;;;-0.52;86.51
36254;BME280;22291;52.250;21.228;2023-01-27T03:17:08;100698.55;;;-0.52;86.53
36254;BME280;22291;52.250;21.228;2023-01-27T03:19:52;100686.59;;;-0.52;86.68
36254;BME280;22291;52.250;21.228;2023-01-27T03:22:19;100689.25;;;-0.52;86.58
36254;BME280;22291;52.250;21.228;2023-01-27T03:24:45;100680.48;;;-0.52;86.61
36254;BME280;22291;52.250;21.228;2023-01-27T03:27:11;100691.11;;;-0.52;86.60
36254;BME280;22291;52.250;21.228;2023-01-27T03:29:37;100686.59;;;-0.52;86.81
36254;BME280;22291;52.250;21.228;2023-01-27T03:32:28;100688.23;;;-0.51;86.76
36254;BME280;22291;52.250;21.228;2023-01-27T03:34:57;100688.14;;;-0.53;86.62
36254;BME280;22291;52.250;21.228;2023-01-27T03:37:26;100690.00;;;-0.54;86.65
36254;BME280;22291;52.250;21.228;2023-01-27T03:40:14;100690.00;;;-0.54;86.60
36254;BME280;22291;52.250;21.228;2023-01-27T03:43:00;100691.03;;;-0.55;86.60
36254;BME280;22291;52.250;21.228;2023-01-27T03:45:50;100687.79;;;-0.57;86.59
36254;BME280;22291;52.250;21.228;2023-01-27T03:48:35;100690.97;;;-0.58;86.57
36254;BME280;22291;52.250;21.228;2023-01-27T03:51:05;100689.03;;;-0.60;86.61
36254;BME280;22291;52.250;21.228;2023-01-27T03:53:34;100687.95;;;-0.61;86.53
36254;BME280;22291;52.250;21.228;2023-01-27T03:56:04;100688.45;;;-0.62;86.59
36254;BME280;22291;52.250;21.228;2023-01-27T03:58:33;100695.63;;;-0.62;86.49
36254;BME280;22291;52.250;21.228;2023-01-27T04:01:12;100694.82;;;-0.63;86.55
36254;BME280;22291;52.250;21.228;2023-01-27T04:03:42;100693.98;;;-0.63;86.64
36254;BME280;22291;52.250;21.228;2023-01-27T04:06:31;100700.05;;;-0.65;86.60
36254;BME280;22291;52.250;21.228;2023-01-27T04:09:26;100703.02;;;-0.64;86.50
36254;BME280;22291;52.250;21.228;2023-01-27T04:11:53;100705.37;;;-0.65;86.37
36254;BME280;22291;52.250;21.228;2023-01-27T04:14:24;100703.77;;;-0.66;86.60
36254;BME280;22291;52.250;21.228;2023-01-27T04:16:59;100710.41;;;-0.66;86.77
36254;BME280;22291;52.250;21.228;2023-01-27T04:19:28;100711.13;;;-0.68;86.86
36254;BME280;22291;52.250;21.228;2023-01-27T04:21:56;100714.83;;;-0.69;87.00
36254;BME280;22291;52.250;21.228;2023-01-27T04:24:24;100711.87;;;-0.70;86.96
36254;BME280;22291;52.250;21.228;2023-01-27T04:26:54;100715.33;;;-0.70;86.94
36254;BME280;22291;52.250;21.228;2023-01-27T04:29:25;100715.63;;;-0.69;87.00
36254;BME280;22291;52.250;21.228;2023-01-27T04:31:54;100714.25;;;-0.71;86.95
36254;BME280;22291;52.250;21.228;2023-01-27T04:34:23;100713.20;;;-0.70;86.94
36254;BME280;22291;52.250;21.228;2023-01-27T04:36:50;100710.54;;;-0.70;87.05
36254;BME280;22291;52.250;21.228;2023-01-27T04:39:18;100711.87;;;-0.70;87.15
36254;BME280;22291;52.250;21.228;2023-01-27T04:41:45;100711.06;;;-0.71;87.14
36254;BME280;22291;52.250;21.228;2023-01-27T04:44:14;100714.25;;;-0.71;87.09
36254;BME280;22291;52.250;21.228;2023-01-27T04:46:41;100714.25;;;-0.71;86.95
36254;BME280;22291;52.250;21.228;2023-01-27T04:49:07;100713.95;;;-0.72;87.04
36254;BME280;22291;52.250;21.228;2023-01-27T04:51:34;100712.84;;;-0.74;87.00
36254;BME280;22291;52.250;21.228;2023-01-27T04:54:00;100720.75;;;-0.77;87.03
36254;BME280;22291;52.250;21.228;2023-01-27T04:56:37;100725.98;;;-0.79;87.19
36254;BME280;22291;52.250;21.228;2023-01-27T04:59:09;100721.10;;;-0.82;87.11
36254;BME280;22291;52.250;21.228;2023-01-27T05:01:37;100728.80;;;-0.83;87.00
36254;BME280;22291;52.250;21.228;2023-01-27T05:04:04;100728.48;;;-0.84;86.95
36254;BME280;22291;52.250;21.228;2023-01-27T05:06:30;100730.47;;;-0.89;86.98
36254;BME280;22291;52.250;21.228;2023-01-27T05:08:56;100729.58;;;-0.92;87.14
36254;BME280;22291;52.250;21.228;2023-01-27T05:11:23;100726.56;;;-0.96;87.11
36254;BME280;22291;52.250;21.228;2023-01-27T05:13:50;100724.66;;;-0.98;86.81
36254;BME280;22291;52.250;21.228;2023-01-27T05:16:19;100733.05;;;-1.01;86.97
36254;BME280;22291;52.250;21.228;2023-01-27T05:18:50;100728.70;;;-1.04;87.18
36254;BME280;22291;52.250;21.228;2023-01-27T05:21:20;100734.98;;;-1.08;87.24
36254;BME280;22291;52.250;21.228;2023-01-27T05:23:49;100731.95;;;-1.11;87.37
36254;BME280;22291;52.250;21.228;2023-01-27T05:26:24;100738.81;;;-1.13;87.23
36254;BME280;22291;52.250;21.228;2023-01-27T05:28:48;100746.72;;;-1.16;87.62
36254;BME280;22291;52.250;21.228;2023-01-27T05:31:22;100742.64;;;-1.18;87.68
36254;BME280;22291;52.250;21.228;2023-01-27T05:33:53;100749.22;;;-1.21;87.65
36254;BME280;22291;52.250;21.228;2023-01-27T05:36:23;100752.20;;;-1.26;87.67
36254;BME280;22291;52.250;21.228;2023-01-27T05:38:53;100747.64;;;-1.28;87.72
36254;BME280;22291;52.250;21.228;2023-01-27T05:41:20;100754.43;;;-1.33;87.97
36254;BME280;22291;52.250;21.228;2023-01-27T05:43:50;100755.14;;;-1.35;88.08
36254;BME280;22291;52.250;21.228;2023-01-27T05:46:21;100767.02;;;-1.37;88.16
36254;BME280;22291;52.250;21.228;2023-01-27T05:48:52;100766.43;;;-1.39;88.37
36254;BME280;22291;52.250;21.228;2023-01-27T05:51:22;100760.81;;;-1.40;88.51
36254;BME280;22291;52.250;21.228;2023-01-27T05:53:50;100765.32;;;-1.41;88.55
36254;BME280;22291;52.250;21.228;2023-01-27T05:56:18;100758.90;;;-1.42;88.73
36254;BME280;22291;52.250;21.228;2023-01-27T05:58:45;100756.67;;;-1.45;88.90
36254;BME280;22291;52.250;21.228;2023-01-27T06:01:17;100769.42;;;-1.45;89.01
36254;BME280;22291;52.250;21.228;2023-01-27T06:03:47;100771.86;;;-1.43;88.81
36254;BME280;22291;52.250;21.228;2023-01-27T06:06:17;100760.28;;;-1.49;88.75
36254;BME280;22291;52.250;21.228;2023-01-27T06:08:46;100767.44;;;-1.49;89.06
36254;BME280;22291;52.250;21.228;2023-01-27T06:11:14;100764.48;;;-1.51;89.16
36254;BME280;22291;52.250;21.228;2023-01-27T06:13:42;100770.30;;;-1.51;89.16
36254;BME280;22291;52.250;21.228;2023-01-27T06:16:11;100774.78;;;-1.52;89.27
36254;BME280;22291;52.250;21.228;2023-01-27T06:18:43;100785.39;;;-1.52;89.36
36254;BME280;22291;52.250;21.228;2023-01-27T06:21:12;100786.44;;;-1.53;89.53
36254;BME280;22291;52.250;21.228;2023-01-27T06:23:39;100783.48;;;-1.54;89.63
36254;BME280;22291;52.250;21.228;2023-01-27T06:26:09;100792.48;;;-1.55;89.77
36254;BME280;22291;52.250;21.228;2023-01-27T06:28:39;100797.58;;;-1.53;89.90
36254;BME280;22291;52.250;21.228;2023-01-27T06:31:12;100794.92;;;-1.53;90.16
36254;BME280;22291;52.250;21.228;2023-01-27T06:33:42;100791.75;;;-1.53;90.11
36254;BME280;22291;52.250;21.228;2023-01-27T06:36:15;100803.75;;;-1.50;90.21
36254;BME280;22291;52.250;21.228;2023-01-27T06:38:44;100808.84;;;-1.48;90.26
36254;BME280;22291;52.250;21.228;2023-01-27T06:41:11;100803.84;;;-1.47;90.23
36254;BME280;22291;52.250;21.228;2023-01-27T06:43:38;100801.20;;;-1.47;90.11
36254;BME280;22291;52.250;21.228;2023-01-27T06:46:05;100805.77;;;-1.45;90.27
36254;BME280;22291;52.250;21.228;2023-01-27T06:48:33;100809.53;;;-1.44;90.36
36254;BME280;22291;52.250;21.228;2023-01-27T06:51:00;100812.87;;;-1.39;90.52
36254;BME280;22291;52.250;21.228;2023-01-27T06:53:26;100809.70;;;-1.39;90.64
36254;BME280;22291;52.250;21.228;2023-01-27T06:55:58;100809.70;;;-1.39;90.64
36254;BME280;22291;52.250;21.228;2023-01-27T06:58:27;100807.94;;;-1.36;90.89
36254;BME280;22291;52.250;21.228;2023-01-27T07:00:55;100811.50;;;-1.33;90.92
36254;BME280;22291;52.250;21.228;2023-01-27T07:03:21;100812.89;;;-1.30;90.92
36254;BME280;22291;52.250;21.228;2023-01-27T07:05:50;100811.44;;;-1.26;91.00
36254;BME280;22291;52.250;21.228;2023-01-27T07:08:18;100816.59;;;-1.22;91.08
36254;BME280;22291;52.250;21.228;2023-01-27T07:10:44;100818.08;;;-1.17;91.27
36254;BME280;22291;52.250;21.228;2023-01-27T07:13:12;100812.63;;;-1.13;91.51
36254;BME280;22291;52.250;21.228;2023-01-27T07:15:41;100812.78;;;-1.07;91.67
36254;BME280;22291;52.250;21.228;2023-01-27T07:18:09;100817.02;;;-1.00;91.71
36254;BME280;22291;52.250;21.228;2023-01-27T07:20:40;100818.50;;;-0.95;91.89
36254;BME280;22291;52.250;21.228;2023-01-27T07:23:08;100814.97;;;-0.88;92.02
36254;BME280;22291;52.250;21.228;2023-01-27T07:25:35;100814.38;;;-0.81;92.16
36254;BME280;22291;52.250;21.228;2023-01-27T07:28:05;100812.77;;;-0.73;92.05
36254;BME280;22291;52.250;21.228;2023-01-27T07:30:32;100823.02;;;-0.67;92.01
36254;BME280;22291;52.250;21.228;2023-01-27T07:33:06;100821.09;;;-0.60;91.99
36254;BME280;22291;52.250;21.228;2023-01-27T07:35:35;100820.80;;;-0.52;91.84
36254;BME280;22291;52.250;21.228;2023-01-27T07:38:03;100822.80;;;-0.47;91.84
36254;BME280;22291;52.250;21.228;2023-01-27T07:56:41;100820.30;;;-0.03;91.23
36254;BME280;22291;52.250;21.228;2023-01-27T07:59:09;100821.01;;;0.05;91.40
36254;BME280;22291;52.250;21.228;2023-01-27T08:01:36;100820.52;;;0.17;91.95
36254;BME280;22291;52.250;21.228;2023-01-27T08:04:03;100823.30;;;0.31;91.90
36254;BME280;22291;52.250;21.228;2023-01-27T08:06:29;100831.36;;;0.46;92.02
36254;BME280;22291;52.250;21.228;2023-01-27T08:08:57;100827.05;;;0.54;91.19
36254;BME280;22291;52.250;21.228;2023-01-27T08:11:25;100824.05;;;0.62;90.69
36254;BME280;22291;52.250;21.228;2023-01-27T08:13:52;100823.98;;;0.71;90.86
36254;BME280;22291;52.250;21.228;2023-01-27T08:16:18;100826.16;;;0.84;90.78
36254;BME280;22291;52.250;21.228;2023-01-27T08:18:45;100827.20;;;0.95;90.75
36254;BME280;22291;52.250;21.228;2023-01-27T08:21:12;100827.43;;;1.05;90.09
36254;BME280;22291;52.250;21.228;2023-01-27T08:23:38;100842.27;;;1.13;89.81
36254;BME280;22291;52.250;21.228;2023-01-27T08:26:05;100833.40;;;1.21;89.69
36254;BME280;22291;52.250;21.228;2023-01-27T08:28:36;100838.01;;;1.26;88.82
36254;BME280;22291;52.250;21.228;2023-01-27T08:31:11;100837.31;;;1.30;88.50
36254;BME280;22291;52.250;21.228;2023-01-27T08:33:41;100834.76;;;1.36;88.42
36254;BME280;22291;52.250;21.228;2023-01-27T08:36:11;100839.09;;;1.39;87.92
36254;BME280;22291;52.250;21.228;2023-01-27T08:38:40;100840.77;;;1.43;87.57
36254;BME280;22291;52.250;21.228;2023-01-27T08:41:14;100835.80;;;1.46;87.61
36254;BME280;22291;52.250;21.228;2023-01-27T08:43:38;100841.24;;;1.52;87.26
36254;BME280;22291;52.250;21.228;2023-01-27T08:46:06;100840.98;;;1.53;87.06
36254;BME280;22291;52.250;21.228;2023-01-27T08:48:34;100849.34;;;1.57;86.83
36254;BME280;22291;52.250;21.228;2023-01-27T08:51:02;100847.81;;;1.61;86.75
36254;BME280;22291;52.250;21.228;2023-01-27T08:53:30;100842.52;;;1.63;86.57
36254;BME280;22291;52.250;21.228;2023-01-27T08:55:58;100845.25;;;1.66;86.05
36254;BME280;22291;52.250;21.228;2023-01-27T08:58:27;100850.89;;;1.67;85.79
36254;BME280;22291;52.250;21.228;2023-01-27T09:00:53;100844.95;;;1.65;85.55
36254;BME280;22291;52.250;21.228;2023-01-27T09:03:20;100843.63;;;1.65;85.75
36254;BME280;22291;52.250;21.228;2023-01-27T09:05:47;100848.25;;;1.70;85.55
36254;BME280;22291;52.250;21.228;2023-01-27T09:08:13;100850.99;;;1.72;85.58
36254;BME280;22291;52.250;21.228;2023-01-27T09:10:41;100848.36;;;1.75;85.42
36254;BME280;22291;52.250;21.228;2023-01-27T09:13:08;100857.23;;;1.78;85.24
36254;BME280;22291;52.250;21.228;2023-01-27T09:15:35;100851.36;;;1.78;84.86
36254;BME280;22291;52.250;21.228;2023-01-27T09:18:03;100853.86;;;1.82;84.85
36254;BME280;22291;52.250;21.228;2023-01-27T09:20:30;100850.42;;;1.84;84.78
36254;BME280;22291;52.250;21.228;2023-01-27T09:22:57;100849.42;;;1.88;84.72
36254;BME280;22291;52.250;21.228;2023-01-27T09:25:23;100850.30;;;1.91;84.68
36254;BME280;22291;52.250;21.228;2023-01-27T09:27:54;100855.16;;;1.94;84.39
36254;BME280;22291;52.250;21.228;2023-01-27T09:30:22;100854.63;;;1.95;84.16
36254;BME280;22291;52.250;21.228;2023-01-27T09:32:49;100852.05;;;2.00;84.29
36254;BME280;22291;52.250;21.228;2023-01-27T09:35:16;100854.05;;;2.07;84.42
36254;BME280;22291;52.250;21.228;2023-01-27T09:37:49;100859.14;;;2.23;84.90
36254;BME280;22291;52.250;21.228;2023-01-27T09:40:27;100847.98;;;2.40;85.06
36254;BME280;22291;52.250;21.228;2023-01-27T09:45:58;100854.48;;;2.95;85.25
36254;BME280;22291;52.250;21.228;2023-01-27T09:52:21;100845.70;;;3.36;84.05
36254;BME280;22291;52.250;21.228;2023-01-27T09:55:17;100849.06;;;3.49;83.16
36254;BME280;22291;52.250;21.228;2023-01-27T10:01:09;100856.16;;;3.58;81.09
36254;BME280;22291;52.250;21.228;2023-01-27T10:09:38;100856.78;;;3.67;79.97
36254;BME280;22291;52.250;21.228;2023-01-27T10:12:37;100854.11;;;3.67;79.38
36254;BME280;22291;52.250;21.228;2023-01-27T10:18:19;100849.97;;;3.79;80.01
36254;BME280;22291;52.250;21.228;2023-01-27T10:26:34;100860.22;;;4.09;79.07
36254;BME280;22291;52.250;21.228;2023-01-27T10:29:17;100861.86;;;4.13;78.37
36254;BME280;22291;52.250;21.228;2023-01-27T10:34:36;100863.89;;;4.03;77.09
36254;BME280;22291;52.250;21.228;2023-01-27T10:37:13;100862.73;;;3.94;76.95
36254;BME280;22291;52.250;21.228;2023-01-27T10:42:41;100873.21;;;3.76;76.23
36254;BME280;22291;52.250;21.228;2023-01-27T10:53:56;100884.09;;;3.28;75.63
36254;BME280;22291;52.250;21.228;2023-01-27T11:02:26;100890.63;;;3.01;75.78
36254;BME280;22291;52.250;21.228;2023-01-27T11:05:12;100888.90;;;2.92;75.45
36254;BME280;22291;52.250;21.228;2023-01-27T11:07:40;100886.92;;;2.85;75.34
36254;BME280;22291;52.250;21.228;2023-01-27T11:10:15;100888.41;;;2.78;75.38
36254;BME280;22291;52.250;21.228;2023-01-27T11:12:50;100885.09;;;2.71;75.27
36254;BME280;22291;52.250;21.228;2023-01-27T11:15:27;100876.41;;;2.64;75.63
36254;BME280;22291;52.250;21.228;2023-01-27T11:18:04;100882.22;;;2.60;75.72
36254;BME280;22291;52.250;21.228;2023-01-27T11:20:41;100876.55;;;2.57;75.80
36254;BME280;22291;52.250;21.228;2023-01-27T11:23:18;100867.42;;;2.53;75.83
36254;BME280;22291;52.250;21.228;2023-01-27T11:26:03;100869.44;;;2.46;75.84
36254;BME280;22291;52.250;21.228;2023-01-27T11:32:03;100864.48;;;2.37;76.14
36254;BME280;22291;52.250;21.228;2023-01-27T11:34:59;100868.40;;;2.32;76.08
36254;BME280;22291;52.250;21.228;2023-01-27T11:37:41;100861.72;;;2.32;76.51
36254;BME280;22291;52.250;21.228;2023-01-27T11:40:34;100859.62;;;2.34;76.62
36254;BME280;22291;52.250;21.228;2023-01-27T11:42:59;100863.15;;;2.37;76.76
36254;BME280;22291;52.250;21.228;2023-01-27T11:45:31;100860.71;;;2.36;76.59
36254;BME280;22291;52.250;21.228;2023-01-27T11:48:00;100864.19;;;2.36;76.63
36254;BME280;22291;52.250;21.228;2023-01-27T11:50:29;100851.37;;;2.36;76.33
36254;BME280;22291;52.250;21.228;2023-01-27T11:52:59;100856.32;;;2.30;76.32
36254;BME280;22291;52.250;21.228;2023-01-27T11:55:34;100856.29;;;2.27;76.32
36254;BME280;22291;52.250;21.228;2023-01-27T11:58:11;100850.63;;;2.23;76.48
36254;BME280;22291;52.250;21.228;2023-01-27T12:00:45;100851.66;;;2.22;76.54
36254;BME280;22291;52.250;21.228;2023-01-27T12:03:19;100856.47;;;2.23;76.55
36254;BME280;22291;52.250;21.228;2023-01-27T12:05:56;100863.14;;;2.23;76.58
36254;BME280;22291;52.250;21.228;2023-01-27T12:08:42;100861.24;;;2.21;76.50
36254;BME280;22291;52.250;21.228;2023-01-27T12:14:00;100856.47;;;2.23;76.65
36254;BME280;22291;52.250;21.228;2023-01-27T12:19:24;100846.05;;;2.21;76.63
36254;BME280;22291;52.250;21.228;2023-01-27T12:22:09;100845.84;;;2.26;77.14
36254;BME280;22291;52.250;21.228;2023-01-27T12:24:45;100844.91;;;2.32;77.19
36254;BME280;22291;52.250;21.228;2023-01-27T12:27:19;100849.47;;;2.34;77.29
36254;BME280;22291;52.250;21.228;2023-01-27T12:30:03;100849.80;;;2.37;77.43
36254;BME280;22291;52.250;21.228;2023-01-27T12:32:43;100842.34;;;2.39;77.43
36254;BME280;22291;52.250;21.228;2023-01-27T12:35:23;100839.73;;;2.42;77.38
36254;BME280;22291;52.250;21.228;2023-01-27T12:40:49;100833.98;;;2.50;77.46
36254;BME280;22291;52.250;21.228;2023-01-27T12:43:27;100840.47;;;2.54;77.64
36254;BME280;22291;52.250;21.228;2023-01-27T12:46:17;100842.66;;;2.57;77.40
36254;BME280;22291;52.250;21.228;2023-01-27T12:48:49;100852.58;;;2.59;77.47
36254;BME280;22291;52.250;21.228;2023-01-27T12:51:25;100848.89;;;2.63;77.41
36254;BME280;22291;52.250;21.228;2023-01-27T12:54:27;100856.66;;;2.65;77.32
36254;BME280;22291;52.250;21.228;2023-01-27T12:57:09;100852.34;;;2.61;77.06
36254;BME280;22291;52.250;21.228;2023-01-27T12:59:32;100860.02;;;2.57;77.14
36254;BME280;22291;52.250;21.228;2023-01-27T13:02:23;100854.36;;;2.54;77.11
36254;BME280;22291;52.250;21.228;2023-01-27T13:04:55;100859.88;;;2.50;77.27
36254;BME280;22291;52.250;21.228;2023-01-27T13:07:46;100851.60;;;2.49;77.27
36254;BME280;22291;52.250;21.228;2023-01-27T13:10:21;100849.17;;;2.47;77.49
36254;BME280;22291;52.250;21.228;2023-01-27T13:12:51;100853.45;;;2.48;77.69
36254;BME280;22291;52.250;21.228;2023-01-27T13:15:23;100854.45;;;2.45;77.89
36254;BME280;22291;52.250;21.228;2023-01-27T13:17:56;100850.89;;;2.39;78.15
36254;BME280;22291;52.250;21.228;2023-01-27T13:20:30;100858.25;;;2.32;78.22
36254;BME280;22291;52.250;21.228;2023-01-27T13:23:26;100848.22;;;2.24;78.46
36254;BME280;22291;52.250;21.228;2023-01-27T13:31:19;100861.62;;;2.13;78.87
36254;BME280;22291;52.250;21.228;2023-01-27T13:34:29;100866.63;;;2.09;79.16
36254;BME280;22291;52.250;21.228;2023-01-27T13:37:22;100864.86;;;2.00;79.33
36254;BME280;22291;52.250;21.228;2023-01-27T13:45:59;100864.43;;;1.77;80.01
36254;BME280;22291;52.250;21.228;2023-01-27T13:48:39;100866.46;;;1.73;80.31
36254;BME280;22291;52.250;21.228;2023-01-27T13:51:13;100869.06;;;1.70;80.52
36254;BME280;22291;52.250;21.228;2023-01-27T13:53:49;100868.26;;;1.70;80.81
36254;BME280;22291;52.250;21.228;2023-01-27T13:56:39;100871.69;;;1.67;80.95
36254;BME280;22291;52.250;21.228;2023-01-27T14:02:48;100877.91;;;1.59;81.12
36254;BME280;22291;52.250;21.228;2023-01-27T14:10:48;100877.70;;;1.48;81.57
36254;BME280;22291;52.250;21.228;2023-01-27T14:16:37;100877.41;;;1.36;81.55
36254;BME280;22291;52.250;21.228;2023-01-27T14:37:10;100878.97;;;1.10;83.17
36254;BME280;22291;52.250;21.228;2023-01-27T14:39:32;100881.86;;;1.09;83.32
36254;BME280;22291;52.250;21.228;2023-01-27T14:44:51;100884.48;;;1.06;83.65
36254;BME280;22291;52.250;21.228;2023-01-27T14:47:37;100883.68;;;1.06;83.59
36254;BME280;22291;52.250;21.228;2023-01-27T14:56:06;100878.81;;;1.03;83.71
36254;BME280;22291;52.250;21.228;2023-01-27T14:59:02;100874.81;;;1.03;83.78
36254;BME280;22291;52.250;21.228;2023-01-27T15:04:37;100882.69;;;0.98;84.06
36254;BME280;22291;52.250;21.228;2023-01-27T15:07:36;100877.05;;;0.97;84.23
36254;BME280;22291;52.250;21.228;2023-01-27T15:18:31;100884.00;;;0.86;84.28
36254;BME280;22291;52.250;21.228;2023-01-27T15:24:07;100885.66;;;0.78;84.52
36254;BME280;22291;52.250;21.228;2023-01-27T15:26:39;100885.02;;;0.73;84.58
36254;BME280;22291;52.250;21.228;2023-01-27T15:29:11;100890.29;;;0.70;84.64